createdAt,value
2023-03-26T00:04:26.127Z,7.68
2023-03-26T00:09:33.012Z,7.68
2023-03-26T00:14:40.964Z,7.72
2023-03-26T00:19:47.844Z,7.75
2023-03-26T00:24:56.958Z,7.82
2023-03-26T00:30:05.190Z,7.79
2023-03-26T00:35:14.084Z,7.81
2023-03-26T00:40:21.517Z,7.88
2023-03-26T00:45:28.563Z,7.93
2023-03-26T00:50:35.635Z,7.99
2023-03-26T00:55:43.043Z,8.04
2023-03-26T01:00:52.441Z,8.10
2023-03-26T01:06:04.722Z,8.16
2023-03-26T01:11:15.389Z,8.18
2023-03-26T01:16:27.723Z,8.21
2023-03-26T01:21:35.383Z,8.23
2023-03-26T01:27:04.397Z,8.26
2023-03-26T01:32:23.050Z,8.26
2023-03-26T01:37:38.676Z,8.19
2023-03-26T01:42:55.409Z,8.11
2023-03-26T01:48:02.925Z,8.04
2023-03-26T01:53:12.654Z,7.95
2023-03-26T01:58:26.588Z,7.89
2023-03-26T02:03:38.650Z,7.88
2023-03-26T02:08:52.885Z,7.87
2023-03-26T02:14:00.777Z,7.85
2023-03-26T02:19:15.643Z,7.85
2023-03-26T02:24:25.570Z,7.86
2023-03-26T02:29:37.750Z,7.85
2023-03-26T02:34:45.347Z,7.79
2023-03-26T02:39:52.818Z,7.70
2023-03-26T02:45:09.646Z,7.70
2023-03-26T02:50:36.998Z,7.75
2023-03-26T02:56:11.040Z,7.79
2023-03-26T03:01:23.518Z,7.84
2023-03-26T03:06:33.259Z,7.93
2023-03-26T03:11:41.568Z,7.95
2023-03-26T03:16:48.876Z,7.88
2023-03-26T03:21:55.750Z,7.80
2023-03-26T03:27:02.714Z,7.73
2023-03-26T03:32:14.662Z,7.71
2023-03-26T03:37:27.055Z,7.66
2023-03-26T03:42:35.145Z,7.57
2023-03-26T03:47:43.560Z,7.38
2023-03-26T03:52:51.434Z,7.31
2023-03-26T03:57:58.608Z,7.23
2023-03-26T04:03:06.740Z,7.20
2023-03-26T04:08:14.600Z,7.23
2023-03-26T04:13:28.113Z,7.41
2023-03-26T04:18:36.766Z,7.52
2023-03-26T04:23:49.470Z,7.62
2023-03-26T04:29:17.178Z,7.77
2023-03-26T04:34:26.376Z,7.85
2023-03-26T04:39:45.054Z,7.90
2023-03-26T04:45:23.169Z,7.94
2023-03-26T04:50:35.851Z,7.94
2023-03-26T04:55:48.998Z,7.99
2023-03-26T05:01:10.429Z,8.08
2023-03-26T05:06:21.903Z,8.12
2023-03-26T05:11:29.591Z,8.11
2023-03-26T05:16:37.604Z,8.15
2023-03-26T05:21:50.815Z,8.12
2023-03-26T05:26:57.826Z,8.07
2023-03-26T05:32:05.740Z,8.00
2023-03-26T05:37:13.894Z,7.99
2023-03-26T05:42:41.298Z,8.01
2023-03-26T05:48:17.530Z,8.06
2023-03-26T05:53:25.595Z,8.11
2023-03-26T05:58:52.155Z,8.16
2023-03-26T06:04:18.178Z,8.19
2023-03-26T06:09:53.519Z,8.23
2023-03-26T06:15:00.887Z,8.26
2023-03-26T06:20:28.330Z,8.30
2023-03-26T06:25:35.884Z,8.35
2023-03-26T06:31:15.039Z,8.40
2023-03-26T06:36:52.729Z,8.41
2023-03-26T06:42:01.121Z,8.44
2023-03-26T06:47:25.538Z,8.54
2023-03-26T06:52:58.607Z,8.64
2023-03-26T06:58:25.845Z,8.73
2023-03-26T07:03:51.551Z,8.84
2023-03-26T07:09:33.237Z,8.99
2023-03-26T07:15:00.822Z,9.14
2023-03-26T07:20:40.572Z,9.23
2023-03-26T07:25:49.836Z,9.33
2023-03-26T07:31:27.291Z,9.45
2023-03-26T07:36:58.595Z,9.58
2023-03-26T07:42:37.592Z,9.69
2023-03-26T07:48:19.021Z,9.70
2023-03-26T07:53:46.893Z,9.77
2023-03-26T07:59:26.216Z,9.77
2023-03-26T08:04:57.329Z,9.83
2023-03-26T08:10:38.381Z,9.96
2023-03-26T08:15:54.545Z,9.97
2023-03-26T08:21:06.304Z,9.91
2023-03-26T08:26:20.347Z,9.95
2023-03-26T08:31:34.074Z,9.99
2023-03-26T08:36:41.285Z,10.01
2023-03-26T08:42:23.097Z,10.13
2023-03-26T08:47:46.959Z,10.38
2023-03-26T08:53:26.671Z,10.43
2023-03-26T08:59:08.724Z,10.36
2023-03-26T09:04:36.455Z,10.38
2023-03-26T09:10:07.108Z,10.14
2023-03-26T09:15:29.693Z,9.80
2023-03-26T09:21:07.200Z,9.50
2023-03-26T09:26:28.071Z,9.31
2023-03-26T09:32:32.213Z,9.13
2023-03-26T09:37:58.624Z,8.59
2023-03-26T09:43:33.503Z,7.82
2023-03-26T09:48:57.643Z,7.63
2023-03-26T09:54:21.941Z,7.59
2023-03-26T10:00:10.956Z,7.73
2023-03-26T10:05:41.441Z,8.06
2023-03-26T10:10:56.570Z,8.19
2023-03-26T10:16:14.005Z,8.45
2023-03-26T10:21:31.421Z,8.74
2023-03-26T10:27:09.348Z,9.09
2023-03-26T10:32:32.142Z,9.24
2023-03-26T10:37:54.450Z,9.36
2023-03-26T10:43:24.210Z,9.54
2023-03-26T10:48:45.471Z,10.08
2023-03-26T10:53:59.935Z,10.38
2023-03-26T10:59:13.130Z,10.42
2023-03-26T11:04:31.585Z,10.05
2023-03-26T11:09:44.944Z,8.94
2023-03-26T11:14:59.580Z,8.20
2023-03-26T11:20:12.979Z,8.03
2023-03-26T11:25:37.054Z,8.18
2023-03-26T11:30:49.713Z,8.42
2023-03-26T11:36:02.485Z,8.62
2023-03-26T11:41:16.244Z,8.97
2023-03-26T11:46:44.932Z,9.33
2023-03-26T11:51:53.483Z,9.60
2023-03-26T11:57:05.568Z,9.74
2023-03-26T12:02:29.678Z,9.82
2023-03-26T12:07:37.880Z,9.90
2023-03-26T12:12:47.237Z,10.07
2023-03-26T12:17:58.206Z,10.28
2023-03-26T12:23:08.308Z,10.44
2023-03-26T12:28:21.576Z,10.54
2023-03-26T12:33:34.287Z,10.58
2023-03-26T12:38:42.566Z,10.76
2023-03-26T12:44:49.205Z,11.11
2023-03-26T12:49:18.962Z,11.35
2023-03-26T12:54:42.569Z,11.71
2023-03-26T13:00:14.087Z,11.98
2023-03-26T13:05:43.227Z,12.04
2023-03-26T13:10:56.411Z,12.19
2023-03-26T13:16:10.101Z,12.68
2023-03-26T13:21:28.652Z,13.56
2023-03-26T13:26:49.949Z,13.58
2023-03-26T13:32:00.908Z,13.25
2023-03-26T13:37:16.098Z,13.37
2023-03-26T13:42:37.737Z,13.51
2023-03-26T13:47:50.601Z,13.57
2023-03-26T13:53:00.562Z,13.81
2023-03-26T13:58:17.976Z,14.50
2023-03-26T14:03:31.911Z,15.16
2023-03-26T14:08:44.597Z,14.85
2023-03-26T14:13:57.976Z,14.80
2023-03-26T14:19:32.158Z,14.43
2023-03-26T14:24:59.185Z,14.20
2023-03-26T14:30:30.065Z,13.90
2023-03-26T14:35:42.664Z,13.59
2023-03-26T14:41:03.253Z,13.36
2023-03-26T14:46:29.339Z,13.30
2023-03-26T14:51:59.610Z,13.53
2023-03-26T14:57:33.607Z,13.43
2023-03-26T15:03:22.268Z,13.23
2023-03-26T15:09:09.094Z,13.07
2023-03-26T15:14:43.717Z,12.87
2023-03-26T15:20:20.803Z,12.63
2023-03-26T15:25:53.100Z,12.22
2023-03-26T15:31:18.832Z,12.04
2023-03-26T15:37:12.043Z,12.04
2023-03-26T15:42:29.730Z,12.00
2023-03-26T15:47:49.880Z,11.93
2023-03-26T15:53:06.777Z,11.86
2023-03-26T15:58:22.786Z,11.77
2023-03-26T16:03:41.201Z,11.68
2023-03-26T16:09:00.704Z,11.54
2023-03-26T16:14:18.055Z,11.03
2023-03-26T16:19:53.340Z,9.80
2023-03-26T16:25:36.780Z,9.00
2023-03-26T16:30:46.248Z,8.69
2023-03-26T16:36:18.500Z,8.57
2023-03-26T16:41:30.550Z,8.48
2023-03-26T16:46:44.709Z,8.45
2023-03-26T16:52:09.619Z,8.39
2023-03-26T16:57:30.642Z,8.35
2023-03-26T17:02:51.387Z,8.30
2023-03-26T17:08:06.808Z,8.22
2023-03-26T17:13:23.367Z,8.16
2023-03-26T17:18:42.656Z,8.10
2023-03-26T17:24:07.041Z,8.05
2023-03-26T17:29:53.130Z,7.97
2023-03-26T17:35:07.594Z,7.84
2023-03-26T17:40:48.170Z,7.76
2023-03-26T17:46:02.800Z,7.61
2023-03-26T17:51:28.110Z,7.54
2023-03-26T17:56:38.898Z,7.49
2023-03-26T18:01:48.537Z,7.45
2023-03-26T18:07:17.367Z,7.40
2023-03-26T18:12:51.572Z,7.37
2023-03-26T18:18:10.514Z,7.35
2023-03-26T18:23:26.375Z,7.34
2023-03-26T18:28:42.228Z,7.36
2023-03-26T18:33:50.950Z,7.40
2023-03-26T18:39:01.421Z,7.44
2023-03-26T18:44:14.020Z,7.48
2023-03-26T18:49:21.707Z,7.57
2023-03-26T18:54:34.966Z,7.66
2023-03-26T18:59:46.299Z,7.72
2023-03-26T19:04:54.441Z,7.76
2023-03-26T19:10:03.039Z,7.78
2023-03-26T19:15:14.711Z,7.79
2023-03-26T19:20:22.764Z,7.77
2023-03-26T19:25:34.325Z,7.76
2023-03-26T19:30:43.921Z,7.77
2023-03-26T19:36:03.607Z,7.77
2023-03-26T19:41:22.689Z,7.78
2023-03-26T19:46:53.624Z,7.75
2023-03-26T19:52:12.454Z,7.70
2023-03-26T19:57:20.049Z,7.67
2023-03-26T20:02:27.834Z,7.62
2023-03-26T20:07:36.450Z,7.56
2023-03-26T20:12:43.602Z,7.51
2023-03-26T20:17:52.406Z,7.47
2023-03-26T20:22:59.651Z,7.49
2023-03-26T20:28:09.128Z,7.50
2023-03-26T20:33:20.464Z,7.48
2023-03-26T20:38:39.106Z,7.47
2023-03-26T20:43:46.692Z,7.44
2023-03-26T20:48:55.449Z,7.40
2023-03-26T20:54:03.322Z,7.35
2023-03-26T20:59:11.711Z,7.30
2023-03-26T21:04:20.054Z,7.27
2023-03-26T21:09:34.337Z,7.22
2023-03-26T21:14:44.085Z,7.20
2023-03-26T21:19:52.264Z,7.18
2023-03-26T21:25:11.805Z,7.12
2023-03-26T21:30:20.129Z,7.06
2023-03-26T21:35:28.627Z,7.06
2023-03-26T21:40:42.283Z,7.10
2023-03-26T21:45:54.153Z,7.17
2023-03-26T21:51:04.847Z,7.21
2023-03-26T21:56:24.274Z,7.21
2023-03-26T22:01:42.743Z,7.23
2023-03-26T22:06:58.139Z,7.22
2023-03-26T22:12:05.660Z,7.21
2023-03-26T22:17:12.644Z,7.21
2023-03-26T22:22:22.207Z,7.20
2023-03-26T22:27:29.166Z,7.17
2023-03-26T22:32:37.683Z,7.20
2023-03-26T22:37:45.164Z,7.22
2023-03-26T22:42:53.511Z,7.22
2023-03-26T22:48:04.616Z,7.20
2023-03-26T22:53:12.035Z,7.18
2023-03-26T22:58:19.223Z,7.16
2023-03-26T23:03:34.781Z,7.14
2023-03-26T23:08:42.973Z,7.12
2023-03-26T23:13:50.643Z,7.11
2023-03-26T23:18:57.668Z,7.09
2023-03-26T23:24:05.105Z,7.07
2023-03-26T23:29:13.926Z,7.05
2023-03-26T23:34:21.725Z,7.01
2023-03-26T23:39:28.721Z,7.00
2023-03-26T23:44:39.389Z,6.98
2023-03-26T23:49:46.614Z,6.97
2023-03-26T23:54:53.576Z,6.97
